createdAt,value
2023-07-14T00:00:48.744Z,68.65
2023-07-14T00:01:42.500Z,68.54
2023-07-14T00:02:42.497Z,68.95
2023-07-14T00:03:42.494Z,69.15
2023-07-14T00:04:42.529Z,68.41
2023-07-14T00:05:42.409Z,68.41
2023-07-14T00:06:48.673Z,68.41
2023-07-14T00:07:42.380Z,68.21
2023-07-14T00:08:42.402Z,68.21
2023-07-14T00:09:42.453Z,68.21
2023-07-14T00:10:42.377Z,68.41
2023-07-14T00:11:48.631Z,68.51
2023-07-14T00:12:42.357Z,68.41
2023-07-14T00:13:42.311Z,68.21
2023-07-14T00:14:42.335Z,68.11
2023-07-14T00:15:42.336Z,68.11
2023-07-14T00:16:48.597Z,68.21
2023-07-14T00:17:42.304Z,67.80
2023-07-14T00:18:42.228Z,67.91
2023-07-14T00:19:42.212Z,67.80
2023-07-14T00:20:42.262Z,67.91
2023-07-14T00:21:48.422Z,68.01
2023-07-14T00:22:43.100Z,68.41
2023-07-14T00:23:42.198Z,68.21
2023-07-14T00:24:42.170Z,68.31
2023-07-14T00:25:42.145Z,68.51
2023-07-14T00:26:48.534Z,68.71
2023-07-14T00:27:42.124Z,68.61
2023-07-14T00:28:42.117Z,68.51
2023-07-14T00:29:42.087Z,69.12
2023-07-14T00:30:42.131Z,68.71
2023-07-14T00:31:42.318Z,68.71
2023-07-14T00:32:48.389Z,68.61
2023-07-14T00:33:42.060Z,68.71
2023-07-14T00:34:42.055Z,68.91
2023-07-14T00:35:42.023Z,69.42
2023-07-14T00:36:42.036Z,69.12
2023-07-14T00:37:42.058Z,69.21
2023-07-14T00:38:48.255Z,69.25
2023-07-14T00:39:41.965Z,69.21
2023-07-14T00:40:42.037Z,69.12
2023-07-14T00:41:41.949Z,69.12
2023-07-14T00:42:42.043Z,69.12
2023-07-14T00:43:41.962Z,70.22
2023-07-14T00:44:48.222Z,69.62
2023-07-14T00:45:43.379Z,69.01
2023-07-14T00:46:42.022Z,68.91
2023-07-14T00:47:42.039Z,68.71
2023-07-14T00:48:41.888Z,68.41
2023-07-14T00:49:41.933Z,69.12
2023-07-14T00:50:48.102Z,68.71
2023-07-14T00:51:41.871Z,69.21
2023-07-14T00:52:41.778Z,68.41
2023-07-14T00:53:41.942Z,68.51
2023-07-14T00:54:41.887Z,68.61
2023-07-14T00:55:41.750Z,68.51
2023-07-14T00:56:48.037Z,68.51
2023-07-14T00:57:41.712Z,68.51
2023-07-14T00:58:41.777Z,68.61
2023-07-14T00:59:41.921Z,68.61
2023-07-14T01:00:41.678Z,68.81
2023-07-14T01:01:47.921Z,69.01
2023-07-14T01:02:41.794Z,68.91
2023-07-14T01:03:41.789Z,69.01
2023-07-14T01:04:41.679Z,68.71
2023-07-14T01:05:41.635Z,68.91
2023-07-14T01:06:41.640Z,68.61
2023-07-14T01:07:47.912Z,68.71
2023-07-14T01:08:41.599Z,69.05
2023-07-14T01:09:41.607Z,69.15
2023-07-14T01:10:41.579Z,69.35
2023-07-14T01:11:41.540Z,69.55
2023-07-14T01:12:41.546Z,69.95
2023-07-14T01:13:47.862Z,69.75
2023-07-14T01:14:41.504Z,69.55
2023-07-14T01:15:41.588Z,69.75
2023-07-14T01:16:41.537Z,69.55
2023-07-14T01:17:42.426Z,69.25
2023-07-14T01:18:41.453Z,69.25
2023-07-14T01:19:47.696Z,69.45
2023-07-14T01:20:41.440Z,70.36
2023-07-14T01:21:41.435Z,69.85
2023-07-14T01:22:41.470Z,69.45
2023-07-14T01:23:41.387Z,69.35
2023-07-14T01:24:41.424Z,69.45
2023-07-14T01:25:47.608Z,69.65
2023-07-14T01:26:42.290Z,69.99
2023-07-14T01:27:41.343Z,70.19
2023-07-14T01:28:41.319Z,70.79
2023-07-14T01:29:41.344Z,70.79
2023-07-14T01:30:41.290Z,70.79
2023-07-14T01:31:47.602Z,70.89
2023-07-14T01:32:41.351Z,71.53
2023-07-14T01:33:41.277Z,71.64
2023-07-14T01:34:41.244Z,71.64
2023-07-14T01:35:41.261Z,71.73
2023-07-14T01:36:47.472Z,71.73
2023-07-14T01:37:41.261Z,71.73
2023-07-14T01:38:41.193Z,72.34
2023-07-14T01:39:41.177Z,71.94
2023-07-14T01:40:41.214Z,71.94
2023-07-14T01:41:47.438Z,71.94
2023-07-14T01:42:41.162Z,71.84
2023-07-14T01:43:41.130Z,71.94
2023-07-14T01:44:41.132Z,72.24
2023-07-14T01:45:41.087Z,72.68
2023-07-14T01:46:47.471Z,73.08
2023-07-14T01:47:41.138Z,73.08
2023-07-14T01:48:41.146Z,73.08
2023-07-14T01:49:41.094Z,73.18
2023-07-14T01:50:41.057Z,73.18
2023-07-14T01:51:47.341Z,73.18
2023-07-14T01:52:41.011Z,74.29
2023-07-14T01:53:41.021Z,73.28
2023-07-14T01:54:41.053Z,73.28
2023-07-14T01:55:41.070Z,72.85
2023-07-14T01:56:41.035Z,72.44
2023-07-14T01:57:47.303Z,72.24
2023-07-14T01:58:40.941Z,72.34
2023-07-14T01:59:40.978Z,72.24
2023-07-14T02:00:40.974Z,72.14
2023-07-14T02:01:40.968Z,72.61
2023-07-14T02:02:41.103Z,72.14
2023-07-14T02:03:47.201Z,72.24
2023-07-14T02:04:40.908Z,72.44
2023-07-14T02:05:40.914Z,73.15
2023-07-14T02:06:40.851Z,72.88
2023-07-14T02:07:40.857Z,73.08
2023-07-14T02:08:40.822Z,72.88
2023-07-14T02:09:47.146Z,73.38
2023-07-14T02:10:40.800Z,73.18
2023-07-14T02:11:40.777Z,73.18
2023-07-14T02:12:40.755Z,73.28
2023-07-14T02:13:40.741Z,73.58
2023-07-14T02:14:40.754Z,73.89
2023-07-14T02:15:46.960Z,73.49
2023-07-14T02:16:40.708Z,73.58
2023-07-14T02:17:40.768Z,73.38
2023-07-14T02:18:40.678Z,73.69
2023-07-14T02:19:40.692Z,73.49
2023-07-14T02:20:40.689Z,73.49
2023-07-14T02:21:46.905Z,74.19
2023-07-14T02:22:40.728Z,73.99
2023-07-14T02:23:40.648Z,73.99
2023-07-14T02:24:40.620Z,74.09
2023-07-14T02:25:40.588Z,74.13
2023-07-14T02:26:40.612Z,74.53
2023-07-14T02:27:46.895Z,74.49
2023-07-14T02:28:40.637Z,74.29
2023-07-14T02:29:40.559Z,74.29
2023-07-14T02:30:40.577Z,74.53
2023-07-14T02:31:40.562Z,74.53
2023-07-14T02:32:40.549Z,74.93
2023-07-14T02:33:46.819Z,74.84
2023-07-14T02:34:40.503Z,74.93
2023-07-14T02:35:40.528Z,75.13
2023-07-14T02:36:40.479Z,74.93
2023-07-14T02:37:40.460Z,74.84
2023-07-14T02:38:40.499Z,74.84
2023-07-14T02:39:46.640Z,75.04
2023-07-14T02:40:40.401Z,74.84
2023-07-14T02:41:40.384Z,74.69
2023-07-14T02:42:40.410Z,74.69
2023-07-14T02:43:40.385Z,74.40
2023-07-14T02:44:40.343Z,74.63
2023-07-14T02:45:46.604Z,74.73
2023-07-14T02:46:40.372Z,74.84
2023-07-14T02:47:40.309Z,74.93
2023-07-14T02:48:40.306Z,75.04
2023-07-14T02:49:40.292Z,75.24
2023-07-14T02:50:46.559Z,75.44
2023-07-14T02:51:40.259Z,75.98
2023-07-14T02:52:40.236Z,75.98
2023-07-14T02:53:40.316Z,75.98
2023-07-14T02:54:40.238Z,76.28
2023-07-14T02:55:40.369Z,76.39
2023-07-14T02:56:46.437Z,76.93
2023-07-14T02:57:40.198Z,77.13
2023-07-14T02:58:40.220Z,77.43
2023-07-14T02:59:40.173Z,77.43
2023-07-14T03:00:40.187Z,77.33
2023-07-14T03:01:46.438Z,77.33
2023-07-14T03:02:40.254Z,77.33
2023-07-14T03:03:40.174Z,77.43
2023-07-14T03:04:40.103Z,77.33
2023-07-14T03:05:40.092Z,77.53
2023-07-14T03:06:47.904Z,77.64
2023-07-14T03:07:40.077Z,77.53
2023-07-14T03:08:40.125Z,77.53
2023-07-14T03:09:40.033Z,77.53
2023-07-14T03:10:40.076Z,77.53
2023-07-14T03:11:46.247Z,77.13
2023-07-14T03:12:39.977Z,77.09
2023-07-14T03:13:39.967Z,77.09
2023-07-14T03:14:40.015Z,77.19
2023-07-14T03:15:39.947Z,76.79
2023-07-14T03:16:46.270Z,76.69
2023-07-14T03:17:40.015Z,76.59
2023-07-14T03:18:39.943Z,76.04
2023-07-14T03:19:39.929Z,75.95
2023-07-14T03:20:39.955Z,76.15
2023-07-14T03:21:39.912Z,76.15
2023-07-14T03:22:46.208Z,76.15
2023-07-14T03:23:39.853Z,75.64
2023-07-14T03:24:39.841Z,75.44
2023-07-14T03:25:39.838Z,75.64
2023-07-14T03:26:39.860Z,76.45
2023-07-14T03:27:39.857Z,75.54
2023-07-14T03:28:46.032Z,75.64
2023-07-14T03:29:39.793Z,75.54
2023-07-14T03:30:39.763Z,75.64
2023-07-14T03:31:39.852Z,76.04
2023-07-14T03:32:39.790Z,76.04
2023-07-14T03:33:39.773Z,75.95
2023-07-14T03:34:45.959Z,75.95
2023-07-14T03:35:39.682Z,76.04
2023-07-14T03:36:39.724Z,76.25
2023-07-14T03:37:39.751Z,75.74
2023-07-14T03:38:39.648Z,75.84
2023-07-14T03:39:45.943Z,75.60
2023-07-14T03:40:39.668Z,75.40
2023-07-14T03:41:39.602Z,75.44
2023-07-14T03:42:39.615Z,76.15
2023-07-14T03:43:39.633Z,75.74
2023-07-14T03:44:45.904Z,75.64
2023-07-14T03:45:39.543Z,75.64
2023-07-14T03:46:39.631Z,75.54
2023-07-14T03:47:39.579Z,75.64
2023-07-14T03:48:40.434Z,75.54
2023-07-14T03:49:45.884Z,75.64
2023-07-14T03:50:39.545Z,75.54
2023-07-14T03:51:39.564Z,75.74
2023-07-14T03:52:39.460Z,75.74
2023-07-14T03:53:39.539Z,76.15
2023-07-14T03:54:39.501Z,76.15
2023-07-14T03:55:45.693Z,76.25
2023-07-14T03:56:39.451Z,76.35
2023-07-14T03:57:52.949Z,76.15
2023-07-14T03:58:40.434Z,76.25
2023-07-14T03:59:39.387Z,76.25
2023-07-14T04:00:45.634Z,76.35
2023-07-14T04:01:39.401Z,76.25
2023-07-14T04:02:39.378Z,76.65
2023-07-14T04:03:39.362Z,76.25
2023-07-14T04:04:39.340Z,76.25
2023-07-14T04:05:45.561Z,75.95
2023-07-14T04:06:39.312Z,75.95
2023-07-14T04:07:39.368Z,75.84
2023-07-14T04:08:39.298Z,75.95
2023-07-14T04:09:39.281Z,76.04
2023-07-14T04:10:45.567Z,76.15
2023-07-14T04:11:39.231Z,76.45
2023-07-14T04:12:39.233Z,76.35
2023-07-14T04:13:39.244Z,76.89
2023-07-14T04:14:39.236Z,77.09
2023-07-14T04:15:45.440Z,77.29
2023-07-14T04:16:39.326Z,77.84
2023-07-14T04:17:39.145Z,78.04
2023-07-14T04:18:39.171Z,78.14
2023-07-14T04:19:39.160Z,78.95
2023-07-14T04:20:45.411Z,78.00
2023-07-14T04:21:39.177Z,77.60
2023-07-14T04:22:40.180Z,77.39
2023-07-14T04:23:43.058Z,77.70
2023-07-14T04:24:39.069Z,77.70
2023-07-14T04:25:39.115Z,77.70
2023-07-14T04:26:45.298Z,77.60
2023-07-14T04:27:39.016Z,77.70
2023-07-14T04:28:39.035Z,77.50
2023-07-14T04:29:39.121Z,77.39
2023-07-14T04:30:39.105Z,77.39
2023-07-14T04:31:39.020Z,77.90
2023-07-14T04:32:45.269Z,77.50
2023-07-14T04:33:39.022Z,77.19
2023-07-14T04:34:38.935Z,77.19
2023-07-14T04:35:38.953Z,77.09
2023-07-14T04:36:38.946Z,77.06
2023-07-14T04:37:38.920Z,77.09
2023-07-14T04:38:45.135Z,77.29
2023-07-14T04:39:38.890Z,77.39
2023-07-14T04:40:38.937Z,77.29
2023-07-14T04:41:39.081Z,77.39
2023-07-14T04:42:38.867Z,77.19
2023-07-14T04:43:38.823Z,77.39
2023-07-14T04:44:45.096Z,77.29
2023-07-14T04:45:38.937Z,77.39
2023-07-14T04:46:38.976Z,77.39
2023-07-14T04:47:38.846Z,77.39
2023-07-14T04:48:38.798Z,77.29
2023-07-14T04:49:44.985Z,77.19
2023-07-14T04:50:38.853Z,77.39
2023-07-14T04:51:38.774Z,77.60
2023-07-14T04:52:38.744Z,77.50
2023-07-14T04:53:38.767Z,78.00
2023-07-14T04:54:38.672Z,77.80
2023-07-14T04:55:44.921Z,77.90
2023-07-14T04:56:38.693Z,77.80
2023-07-14T04:57:38.616Z,77.80
2023-07-14T04:58:38.661Z,77.80
2023-07-14T04:59:38.593Z,77.70
2023-07-14T05:00:44.877Z,77.90
2023-07-14T05:01:38.672Z,77.56
2023-07-14T05:02:38.653Z,77.56
2023-07-14T05:03:38.680Z,77.36
2023-07-14T05:04:45.298Z,77.36
2023-07-14T05:05:46.262Z,77.36
2023-07-14T05:06:38.551Z,77.26
2023-07-14T05:07:38.518Z,77.26
2023-07-14T05:08:38.493Z,76.95
2023-07-14T05:09:38.540Z,76.75
2023-07-14T05:10:44.730Z,76.95
2023-07-14T05:11:38.516Z,76.95
2023-07-14T05:12:38.457Z,77.15
2023-07-14T05:13:38.435Z,77.15
2023-07-14T05:14:39.598Z,76.86
2023-07-14T05:15:47.798Z,76.55
2023-07-14T05:16:38.429Z,76.62
2023-07-14T05:17:38.383Z,76.51
2023-07-14T05:18:38.382Z,76.11
2023-07-14T05:19:38.363Z,75.71
2023-07-14T05:20:38.356Z,75.81
2023-07-14T05:21:44.602Z,75.71
2023-07-14T05:22:38.376Z,75.51
2023-07-14T05:23:38.323Z,75.20
2023-07-14T05:24:38.333Z,75.20
2023-07-14T05:25:38.294Z,75.51
2023-07-14T05:26:38.259Z,75.71
2023-07-14T05:27:44.546Z,76.21
2023-07-14T05:28:38.331Z,76.01
2023-07-14T05:29:38.306Z,76.31
2023-07-14T05:30:38.213Z,76.11
2023-07-14T05:31:38.204Z,75.77
2023-07-14T05:32:38.296Z,75.67
2023-07-14T05:33:44.418Z,75.57
2023-07-14T05:34:38.158Z,75.27
2023-07-14T05:35:38.155Z,75.47
2023-07-14T05:36:38.139Z,75.07
2023-07-14T05:37:38.160Z,74.76
2023-07-14T05:38:44.329Z,74.76
2023-07-14T05:39:38.142Z,75.27
2023-07-14T05:40:51.231Z,74.96
2023-07-14T05:41:39.586Z,74.66
2023-07-14T05:42:38.058Z,74.46
2023-07-14T05:43:38.102Z,74.87
2023-07-14T05:44:44.312Z,75.16
2023-07-14T05:45:38.019Z,75.27
2023-07-14T05:46:38.043Z,75.27
2023-07-14T05:47:38.132Z,75.34
2023-07-14T05:48:38.022Z,75.23
2023-07-14T05:49:37.999Z,74.66
2023-07-14T05:50:44.190Z,75.94
2023-07-14T05:51:37.936Z,75.43
2023-07-14T05:52:37.936Z,74.83
2023-07-14T05:53:37.915Z,74.83
2023-07-14T05:54:37.910Z,74.52
2023-07-14T05:55:37.898Z,75.23
2023-07-14T05:56:45.052Z,74.43
2023-07-14T05:57:37.861Z,74.29
2023-07-14T05:58:37.868Z,73.79
2023-07-14T05:59:37.913Z,73.79
2023-07-14T06:00:39.682Z,73.58
2023-07-14T06:01:37.916Z,73.38
2023-07-14T06:02:44.141Z,73.08
2023-07-14T06:03:37.920Z,72.38
2023-07-14T06:04:37.869Z,71.97
2023-07-14T06:05:37.823Z,71.77
2023-07-14T06:06:38.004Z,71.67
2023-07-14T06:07:44.090Z,71.87
2023-07-14T06:08:37.774Z,72.47
2023-07-14T06:09:37.746Z,72.17
2023-07-14T06:10:37.764Z,71.87
2023-07-14T06:11:37.729Z,71.53
2023-07-14T06:12:44.034Z,71.73
2023-07-14T06:13:37.781Z,71.44
2023-07-14T06:14:37.666Z,71.13
2023-07-14T06:15:37.665Z,71.44
2023-07-14T06:16:37.813Z,71.33
2023-07-14T06:17:37.751Z,71.80
2023-07-14T06:18:43.887Z,70.90
2023-07-14T06:19:37.585Z,71.10
2023-07-14T06:20:37.580Z,70.90
2023-07-14T06:21:37.546Z,70.86
2023-07-14T06:22:37.643Z,71.16
2023-07-14T06:23:43.814Z,71.47
2023-07-14T06:24:37.690Z,70.26
2023-07-14T06:25:37.528Z,70.26
2023-07-14T06:26:38.574Z,70.23
2023-07-14T06:27:37.493Z,69.62
2023-07-14T06:28:37.591Z,69.42
2023-07-14T06:29:43.684Z,69.12
2023-07-14T06:30:37.508Z,69.02
2023-07-14T06:31:37.409Z,68.91
2023-07-14T06:32:37.470Z,68.71
2023-07-14T06:33:37.458Z,68.62
2023-07-14T06:34:43.776Z,67.91
2023-07-14T06:35:37.407Z,68.62
2023-07-14T06:36:37.391Z,67.78
2023-07-14T06:37:37.571Z,66.10
2023-07-14T06:38:37.391Z,65.50
2023-07-14T06:39:43.689Z,65.50
2023-07-14T06:40:37.412Z,66.00
2023-07-14T06:41:37.351Z,65.80
2023-07-14T06:42:37.319Z,65.26
2023-07-14T06:43:37.275Z,65.26
2023-07-14T06:44:43.552Z,65.16
2023-07-14T06:45:37.222Z,64.76
2023-07-14T06:46:37.257Z,64.63
2023-07-14T06:47:37.308Z,64.13
2023-07-14T06:48:37.252Z,64.03
2023-07-14T06:49:43.461Z,63.82
2023-07-14T06:50:37.255Z,64.03
2023-07-14T06:51:37.195Z,64.53
2023-07-14T06:52:37.169Z,64.93
2023-07-14T06:53:37.159Z,65.03
2023-07-14T06:54:38.831Z,64.93
2023-07-14T06:55:43.735Z,64.90
2023-07-14T06:56:37.127Z,64.90
2023-07-14T06:57:37.130Z,64.80
2023-07-14T06:58:37.144Z,63.70
2023-07-14T06:59:37.077Z,63.19
2023-07-14T07:00:43.396Z,63.90
2023-07-14T07:01:37.118Z,63.90
2023-07-14T07:02:37.169Z,64.20
2023-07-14T07:03:37.141Z,64.27
2023-07-14T07:04:37.043Z,64.27
2023-07-14T07:05:37.135Z,63.87
2023-07-14T07:06:43.363Z,63.87
2023-07-14T07:07:36.974Z,63.06
2023-07-14T07:08:36.965Z,62.96
2023-07-14T07:09:36.962Z,62.66
2023-07-14T07:10:36.985Z,62.26
2023-07-14T07:11:36.989Z,61.52
2023-07-14T07:12:43.312Z,61.63
2023-07-14T07:13:36.925Z,62.03
2023-07-14T07:14:36.895Z,62.33
2023-07-14T07:15:36.992Z,61.63
2023-07-14T07:16:36.921Z,59.99
2023-07-14T07:17:37.591Z,60.39
2023-07-14T07:18:43.237Z,60.29
2023-07-14T07:19:36.787Z,60.29
2023-07-14T07:20:36.817Z,60.49
2023-07-14T07:21:36.856Z,60.69
2023-07-14T07:22:36.882Z,61.10
2023-07-14T07:23:36.946Z,60.80
2023-07-14T07:24:43.256Z,60.49
2023-07-14T07:25:36.733Z,60.77
2023-07-14T07:26:37.861Z,60.77
2023-07-14T07:27:36.806Z,61.07
2023-07-14T07:28:36.878Z,60.44
2023-07-14T07:29:36.714Z,59.74
2023-07-14T07:30:42.967Z,59.53
2023-07-14T07:31:36.696Z,59.74
2023-07-14T07:32:36.676Z,59.53
2023-07-14T07:33:36.725Z,59.83
2023-07-14T07:34:36.650Z,59.33
2023-07-14T07:35:42.893Z,59.83
2023-07-14T07:36:36.579Z,60.14
2023-07-14T07:37:36.627Z,59.53
2023-07-14T07:38:36.568Z,59.33
2023-07-14T07:39:36.630Z,59.33
2023-07-14T07:40:36.747Z,59.33
2023-07-14T07:41:45.775Z,59.74
2023-07-14T07:42:36.600Z,59.50
2023-07-14T07:43:36.555Z,60.21
2023-07-14T07:44:36.482Z,59.50
2023-07-14T07:45:36.565Z,59.50
2023-07-14T07:46:36.506Z,59.61
2023-07-14T07:47:43.005Z,58.68
2023-07-14T07:48:36.611Z,58.98
2023-07-14T07:49:36.560Z,58.87
2023-07-14T07:50:36.504Z,58.07
2023-07-14T07:51:36.395Z,57.35
2023-07-14T07:52:42.690Z,57.75
2023-07-14T07:53:36.380Z,57.55
2023-07-14T07:54:36.363Z,57.22
2023-07-14T07:55:36.345Z,57.62
2023-07-14T07:56:36.430Z,54.62
2023-07-14T07:57:42.641Z,54.02
2023-07-14T07:58:36.368Z,54.52
2023-07-14T07:59:36.422Z,54.62
2023-07-14T08:00:36.303Z,54.42
2023-07-14T08:01:36.411Z,54.42
2023-07-14T08:02:42.760Z,54.62
2023-07-14T08:03:36.622Z,54.42
2023-07-14T08:04:36.323Z,55.02
2023-07-14T08:05:36.502Z,55.12
2023-07-14T08:06:36.272Z,54.32
2023-07-14T08:07:42.533Z,54.52
2023-07-14T08:08:36.253Z,54.72
2023-07-14T08:09:36.192Z,54.52
2023-07-14T08:10:36.167Z,55.22
2023-07-14T08:11:36.176Z,54.62
2023-07-14T08:12:36.147Z,54.22
2023-07-14T08:13:42.395Z,54.72
2023-07-14T08:14:36.088Z,54.42
2023-07-14T08:15:36.656Z,54.39
2023-07-14T08:17:34.084Z,53.89
2023-07-14T08:18:40.253Z,53.27
2023-07-14T08:19:34.027Z,52.87
2023-07-14T08:20:33.988Z,52.07
2023-07-14T08:21:34.036Z,52.47
2023-07-14T08:22:34.006Z,52.14
2023-07-14T08:23:33.985Z,52.14
2023-07-14T08:24:40.291Z,51.84
2023-07-14T08:25:34.202Z,51.37
2023-07-14T08:26:33.950Z,51.87
2023-07-14T08:27:34.073Z,52.07
2023-07-14T08:28:33.929Z,51.47
2023-07-14T08:29:40.111Z,51.77
2023-07-14T08:30:33.877Z,52.25
2023-07-14T08:31:33.961Z,52.04
2023-07-14T08:32:33.860Z,52.14
2023-07-14T08:33:33.879Z,50.92
2023-07-14T08:34:40.049Z,51.82
2023-07-14T08:35:33.844Z,52.00
2023-07-14T08:36:33.827Z,51.20
2023-07-14T08:37:33.871Z,50.37
2023-07-14T08:38:33.887Z,50.47
2023-07-14T08:39:33.742Z,49.77
2023-07-14T08:40:39.989Z,49.98
2023-07-14T08:41:33.740Z,50.17
2023-07-14T08:42:33.687Z,49.57
2023-07-14T08:43:33.786Z,50.37
2023-07-14T08:44:33.956Z,49.48
2023-07-14T08:45:33.692Z,50.15
2023-07-14T08:46:40.063Z,49.63
2023-07-14T08:47:33.718Z,48.63
2023-07-14T08:48:34.364Z,48.33
2023-07-14T08:49:33.657Z,48.83
2023-07-14T08:50:33.716Z,48.31
2023-07-14T08:51:39.920Z,48.01
2023-07-14T08:52:33.583Z,47.91
2023-07-14T08:53:33.575Z,47.41
2023-07-14T08:54:33.537Z,47.41
2023-07-14T08:55:33.541Z,47.33
2023-07-14T08:56:33.553Z,47.44
2023-07-14T08:57:39.800Z,47.66
2023-07-14T08:58:33.511Z,47.86
2023-07-14T08:59:33.497Z,47.06
2023-07-14T09:00:34.431Z,47.16
2023-07-14T09:01:33.511Z,46.86
2023-07-14T09:02:39.785Z,47.45
2023-07-14T09:03:33.447Z,47.03
2023-07-14T09:04:33.704Z,46.64
2023-07-14T09:05:33.492Z,47.33
2023-07-14T09:06:33.401Z,47.41
2023-07-14T09:07:33.364Z,47.51
2023-07-14T09:08:39.708Z,46.89
2023-07-14T09:09:33.414Z,45.30
2023-07-14T09:10:33.493Z,45.87
2023-07-14T09:11:33.343Z,45.37
2023-07-14T09:12:33.486Z,44.85
2023-07-14T09:13:33.373Z,45.45
2023-07-14T09:14:39.593Z,44.16
2023-07-14T09:15:33.323Z,44.66
2023-07-14T09:16:33.647Z,44.88
2023-07-14T09:17:33.351Z,44.98
2023-07-14T09:18:33.319Z,46.08
2023-07-14T09:19:33.248Z,45.28
2023-07-14T09:20:39.503Z,45.37
2023-07-14T09:21:33.366Z,44.98
2023-07-14T09:22:33.229Z,44.98
2023-07-14T09:23:33.175Z,44.85
2023-07-14T09:24:33.199Z,44.88
2023-07-14T09:25:33.225Z,44.58
2023-07-14T09:26:39.455Z,44.28
2023-07-14T09:27:33.201Z,44.18
2023-07-14T09:28:33.091Z,44.58
2023-07-14T09:29:33.130Z,44.78
2023-07-14T09:30:33.380Z,44.98
2023-07-14T09:31:33.213Z,44.66
2023-07-14T09:32:39.427Z,43.76
2023-07-14T09:33:33.175Z,43.54
2023-07-14T09:34:33.079Z,43.44
2023-07-14T09:35:33.111Z,43.44
2023-07-14T09:36:33.033Z,43.54
2023-07-14T09:37:39.283Z,43.64
2023-07-14T09:38:33.139Z,43.35
2023-07-14T09:39:33.010Z,43.74
2023-07-14T09:40:33.029Z,42.15
2023-07-14T09:41:32.959Z,42.23
2023-07-14T09:42:33.282Z,42.75
2023-07-14T09:43:39.274Z,43.35
2023-07-14T09:44:32.915Z,43.15
2023-07-14T09:45:33.076Z,43.44
2023-07-14T09:46:33.025Z,43.15
2023-07-14T09:47:32.969Z,43.24
2023-07-14T09:48:32.921Z,43.05
2023-07-14T09:49:39.314Z,43.44
2023-07-14T09:50:32.915Z,43.74
2023-07-14T09:51:32.870Z,43.64
2023-07-14T09:52:32.876Z,43.54
2023-07-14T09:53:32.810Z,43.84
2023-07-14T09:54:32.900Z,43.27
2023-07-14T09:55:39.055Z,43.76
2023-07-14T09:56:32.806Z,44.16
2023-07-14T09:57:40.460Z,44.36
2023-07-14T09:58:34.292Z,44.74
2023-07-14T09:59:32.780Z,44.81
2023-07-14T10:00:39.066Z,42.80
2023-07-14T10:01:32.749Z,42.88
2023-07-14T10:02:32.732Z,41.89
2023-07-14T10:03:43.431Z,41.99
2023-07-14T10:04:34.195Z,41.67
2023-07-14T10:05:54.889Z,42.27
2023-07-14T10:06:32.672Z,42.05
2023-07-14T10:07:32.691Z,41.73
2023-07-14T10:08:32.704Z,41.83
2023-07-14T10:09:32.639Z,40.33
2023-07-14T10:10:32.606Z,40.72
2023-07-14T10:11:39.023Z,40.31
2023-07-14T10:12:33.536Z,39.93
2023-07-14T10:13:32.656Z,40.23
2023-07-14T10:14:32.613Z,40.72
2023-07-14T10:15:32.565Z,40.52
2023-07-14T10:16:32.641Z,41.24
2023-07-14T10:17:38.866Z,41.26
2023-07-14T10:18:32.632Z,41.66
2023-07-14T10:19:32.518Z,41.67
2023-07-14T10:20:33.422Z,43.16
2023-07-14T10:21:32.575Z,42.27
2023-07-14T10:22:38.894Z,41.85
2023-07-14T10:23:32.501Z,41.67
2023-07-14T10:24:32.492Z,41.17
2023-07-14T10:25:32.464Z,41.47
2023-07-14T10:26:32.508Z,41.89
2023-07-14T10:27:32.515Z,42.69
2023-07-14T10:28:38.662Z,41.77
2023-07-14T10:29:32.401Z,41.85
2023-07-14T10:30:32.474Z,41.24
2023-07-14T10:31:32.387Z,41.61
2023-07-14T10:32:32.503Z,40.12
2023-07-14T10:33:32.571Z,40.20
2023-07-14T10:34:39.609Z,39.81
2023-07-14T10:35:32.343Z,39.12
2023-07-14T10:36:32.285Z,39.10
2023-07-14T10:37:32.391Z,39.40
2023-07-14T10:38:32.273Z,38.78
2023-07-14T10:39:32.339Z,39.00
2023-07-14T10:40:38.518Z,39.02
2023-07-14T10:41:32.260Z,40.12
2023-07-14T10:42:32.206Z,40.52
2023-07-14T10:43:32.258Z,40.50
2023-07-14T10:44:32.280Z,40.11
2023-07-14T10:45:38.518Z,40.01
2023-07-14T10:46:32.357Z,39.81
2023-07-14T10:47:32.212Z,39.81
2023-07-14T10:48:32.225Z,39.91
2023-07-14T10:49:32.846Z,39.00
2023-07-14T10:51:44.539Z,38.39
2023-07-14T10:52:44.613Z,38.49
2023-07-14T10:53:44.518Z,38.27
2023-07-14T10:54:44.530Z,37.26
2023-07-14T10:55:50.813Z,38.43
2023-07-14T10:56:44.466Z,37.32
2023-07-14T10:57:44.491Z,36.82
2023-07-14T10:58:44.458Z,36.21
2023-07-14T10:59:44.448Z,35.97
2023-07-14T11:00:50.686Z,36.74
2023-07-14T11:01:44.500Z,34.56
2023-07-14T11:02:44.555Z,34.54
2023-07-14T11:03:44.459Z,34.13
2023-07-14T11:04:44.454Z,33.64
2023-07-14T11:05:50.706Z,33.62
2023-07-14T11:06:44.383Z,34.00
2023-07-14T11:07:44.371Z,32.71
2023-07-14T11:08:44.350Z,32.97
2023-07-14T11:09:44.316Z,32.17
2023-07-14T11:10:44.322Z,31.47
2023-07-14T11:11:50.543Z,31.54
2023-07-14T11:12:47.655Z,30.85
2023-07-14T11:13:44.309Z,30.98
2023-07-14T11:14:44.273Z,31.01
2023-07-14T11:15:44.312Z,31.32
2023-07-14T11:16:50.560Z,31.33
2023-07-14T11:17:44.475Z,31.02
2023-07-14T11:18:44.252Z,31.87
2023-07-14T11:19:46.970Z,29.97
2023-07-14T11:20:44.275Z,28.77
2023-07-14T11:21:44.186Z,28.65
2023-07-14T11:22:50.541Z,28.92
2023-07-14T11:23:44.252Z,27.25
2023-07-14T11:24:44.179Z,26.95
2023-07-14T11:25:44.195Z,27.03
2023-07-14T11:26:44.170Z,27.03
2023-07-14T11:27:44.233Z,27.70
2023-07-14T11:28:51.392Z,26.91
2023-07-14T11:29:44.121Z,27.86
2023-07-14T11:30:44.119Z,25.21
2023-07-14T11:31:44.190Z,26.65
2023-07-14T11:32:44.139Z,25.07
2023-07-14T11:33:50.427Z,24.67
2023-07-14T11:34:44.087Z,23.77
2023-07-14T11:35:44.059Z,22.91
2023-07-14T11:36:44.085Z,23.13
2023-07-14T11:37:44.040Z,23.83
2023-07-14T11:38:50.351Z,24.12
2023-07-14T11:39:44.170Z,24.21
2023-07-14T11:40:44.028Z,23.43
2023-07-14T11:41:44.057Z,23.32
2023-07-14T11:42:44.054Z,24.19
2023-07-14T11:43:43.980Z,23.31
2023-07-14T11:44:50.242Z,23.79
2023-07-14T11:45:44.133Z,22.60
2023-07-14T11:46:43.979Z,22.58
2023-07-14T11:47:43.988Z,22.31
2023-07-14T11:48:43.956Z,22.80
2023-07-14T11:49:50.200Z,22.31
2023-07-14T11:50:44.043Z,23.69
2023-07-14T11:51:43.881Z,22.80
2023-07-14T11:52:44.242Z,23.47
2023-07-14T11:53:43.978Z,22.10
2023-07-14T11:54:50.211Z,22.39
2023-07-14T11:55:44.880Z,22.92
2023-07-14T11:56:43.872Z,24.82
2023-07-14T11:57:44.063Z,25.26
2023-07-14T11:58:43.864Z,26.48
2023-07-14T11:59:43.810Z,27.59
2023-07-14T12:00:50.086Z,28.01
2023-07-14T12:01:43.927Z,28.96
2023-07-14T12:02:43.890Z,26.86
2023-07-14T12:03:43.907Z,26.02
2023-07-14T12:04:43.834Z,24.62
2023-07-14T12:05:50.072Z,25.02
2023-07-14T12:06:43.848Z,25.03
2023-07-14T12:07:43.769Z,25.35
2023-07-14T12:08:44.696Z,26.35
2023-07-14T12:09:43.749Z,26.97
2023-07-14T12:10:43.768Z,26.76
2023-07-14T12:11:50.039Z,26.21
2023-07-14T12:12:43.721Z,24.24
2023-07-14T12:13:43.815Z,23.95
2023-07-14T12:15:44.280Z,23.14
2023-07-14T12:16:50.011Z,22.72
2023-07-14T12:17:43.811Z,23.24
2023-07-14T12:18:43.703Z,24.44
2023-07-14T12:19:43.729Z,24.02
2023-07-14T12:20:43.692Z,22.93
2023-07-14T12:21:43.627Z,22.25
2023-07-14T12:22:49.897Z,23.41
2023-07-14T12:23:43.716Z,23.68
2023-07-14T12:24:43.678Z,21.91
2023-07-14T12:25:43.591Z,21.31
2023-07-14T12:26:43.573Z,21.03
2023-07-14T12:27:43.561Z,21.43
2023-07-14T12:28:52.408Z,21.42
2023-07-14T12:29:57.769Z,21.25
2023-07-14T12:30:45.696Z,22.54
2023-07-14T12:31:43.701Z,22.75
2023-07-14T12:32:43.582Z,23.68
2023-07-14T12:33:43.515Z,24.81
2023-07-14T12:34:49.793Z,25.83
2023-07-14T12:35:43.470Z,27.06
2023-07-14T12:36:43.457Z,28.57
2023-07-14T12:37:43.487Z,28.50
2023-07-14T12:38:43.436Z,29.61
2023-07-14T12:39:43.504Z,30.31
2023-07-14T12:40:49.826Z,30.62
2023-07-14T12:41:43.499Z,30.68
2023-07-14T12:42:43.618Z,28.54
2023-07-14T12:43:43.389Z,28.08
2023-07-14T12:44:43.389Z,25.98
2023-07-14T12:45:47.867Z,25.16
2023-07-14T12:46:49.629Z,25.46
2023-07-14T12:47:43.413Z,25.61
2023-07-14T12:48:43.354Z,25.81
2023-07-14T12:49:43.323Z,26.21
2023-07-14T12:50:43.370Z,26.29
2023-07-14T12:51:43.369Z,26.97
2023-07-14T12:52:49.594Z,25.57
2023-07-14T12:53:43.300Z,25.75
2023-07-14T12:54:43.249Z,24.67
2023-07-14T12:55:43.272Z,24.98